sensor_id;sensor_type;location;lat;lon;timestamp;temperature;humidity
14101;DHT22;7127;49.372;8.166;2024-01-15T00:01:49;1.80;50.40
14101;DHT22;7127;49.372;8.166;2024-01-15T00:04:16;1.80;50.40
14101;DHT22;7127;49.372;8.166;2024-01-15T00:06:43;1.80;50.40
14101;DHT22;7127;49.372;8.166;2024-01-15T00:09:10;1.80;50.40
14101;DHT22;7127;49.372;8.166;2024-01-15T00:11:37;1.80;50.40
14101;DHT22;7127;49.372;8.166;2024-01-15T00:14:04;1.80;50.40
14101;DHT22;7127;49.372;8.166;2024-01-15T00:16:32;1.80;50.40
14101;DHT22;7127;49.372;8.166;2024-01-15T00:18:59;1.80;50.40
14101;DHT22;7127;49.372;8.166;2024-01-15T00:21:26;1.90;50.50
14101;DHT22;7127;49.372;8.166;2024-01-15T00:23:53;1.90;50.50
14101;DHT22;7127;49.372;8.166;2024-01-15T00:26:20;1.90;50.40
14101;DHT22;7127;49.372;8.166;2024-01-15T00:28:47;1.90;50.50
14101;DHT22;7127;49.372;8.166;2024-01-15T00:31:16;1.90;50.50
14101;DHT22;7127;49.372;8.166;2024-01-15T00:33:44;1.90;50.50
14101;DHT22;7127;49.372;8.166;2024-01-15T00:36:11;1.90;50.40
14101;DHT22;7127;49.372;8.166;2024-01-15T00:38:40;1.90;51.10
14101;DHT22;7127;49.372;8.166;2024-01-15T00:41:06;1.90;50.60
14101;DHT22;7127;49.372;8.166;2024-01-15T00:43:33;1.90;50.50
14101;DHT22;7127;49.372;8.166;2024-01-15T00:46:01;1.90;50.50
14101;DHT22;7127;49.372;8.166;2024-01-15T00:48:28;2.00;50.60
14101;DHT22;7127;49.372;8.166;2024-01-15T00:50:57;2.00;50.60
14101;DHT22;7127;49.372;8.166;2024-01-15T00:53:25;2.00;50.60
14101;DHT22;7127;49.372;8.166;2024-01-15T00:55:52;2.00;50.60
14101;DHT22;7127;49.372;8.166;2024-01-15T00:58:19;2.00;50.60
14101;DHT22;7127;49.372;8.166;2024-01-15T01:00:46;2.00;50.60
14101;DHT22;7127;49.372;8.166;2024-01-15T01:03:13;2.00;50.60
14101;DHT22;7127;49.372;8.166;2024-01-15T01:05:40;2.10;50.60
14101;DHT22;7127;49.372;8.166;2024-01-15T01:08:08;2.60;50.80
14101;DHT22;7127;49.372;8.166;2024-01-15T01:10:35;2.20;50.50
14101;DHT22;7127;49.372;8.166;2024-01-15T01:13:02;2.20;50.40
14101;DHT22;7127;49.372;8.166;2024-01-15T01:15:29;2.20;50.40
14101;DHT22;7127;49.372;8.166;2024-01-15T01:17:56;2.20;50.40
14101;DHT22;7127;49.372;8.166;2024-01-15T01:20:23;2.20;50.40
14101;DHT22;7127;49.372;8.166;2024-01-15T01:22:50;2.20;50.40
14101;DHT22;7127;49.372;8.166;2024-01-15T01:25:19;2.20;50.40
14101;DHT22;7127;49.372;8.166;2024-01-15T01:27:46;2.20;50.30
14101;DHT22;7127;49.372;8.166;2024-01-15T01:30:13;2.30;50.50
14101;DHT22;7127;49.372;8.166;2024-01-15T01:32:40;2.30;50.50
14101;DHT22;7127;49.372;8.166;2024-01-15T01:35:07;2.30;50.40
14101;DHT22;7127;49.372;8.166;2024-01-15T01:37:34;2.80;50.80
14101;DHT22;7127;49.372;8.166;2024-01-15T01:40:02;2.30;50.50
14101;DHT22;7127;49.372;8.166;2024-01-15T01:42:31;2.30;50.60
14101;DHT22;7127;49.372;8.166;2024-01-15T01:44:58;2.90;50.90
14101;DHT22;7127;49.372;8.166;2024-01-15T01:47:26;2.40;50.50
14101;DHT22;7127;49.372;8.166;2024-01-15T01:49:54;2.50;50.50
14101;DHT22;7127;49.372;8.166;2024-01-15T01:52:21;2.40;50.50
14101;DHT22;7127;49.372;8.166;2024-01-15T01:54:48;3.60;51.30
14101;DHT22;7127;49.372;8.166;2024-01-15T01:57:16;3.10;51.00
14101;DHT22;7127;49.372;8.166;2024-01-15T01:59:46;2.50;50.80
14101;DHT22;7127;49.372;8.166;2024-01-15T02:02:14;2.40;50.50
14101;DHT22;7127;49.372;8.166;2024-01-15T02:04:41;2.50;50.50
14101;DHT22;7127;49.372;8.166;2024-01-15T02:07:08;2.50;50.60
14101;DHT22;7127;49.372;8.166;2024-01-15T02:09:36;3.10;51.00
14101;DHT22;7127;49.372;8.166;2024-01-15T02:12:04;2.50;50.70
14101;DHT22;7127;49.372;8.166;2024-01-15T02:14:31;2.50;50.60
14101;DHT22;7127;49.372;8.166;2024-01-15T02:17:00;2.50;50.60
14101;DHT22;7127;49.372;8.166;2024-01-15T02:19:27;2.50;50.50
14101;DHT22;7127;49.372;8.166;2024-01-15T02:21:53;2.60;50.60
14101;DHT22;7127;49.372;8.166;2024-01-15T02:24:22;2.60;50.50
14101;DHT22;7127;49.372;8.166;2024-01-15T02:26:49;2.60;50.50
14101;DHT22;7127;49.372;8.166;2024-01-15T02:29:16;2.60;50.50
14101;DHT22;7127;49.372;8.166;2024-01-15T02:31:42;2.60;50.40
14101;DHT22;7127;49.372;8.166;2024-01-15T02:34:09;2.60;50.60
14101;DHT22;7127;49.372;8.166;2024-01-15T02:36:36;2.60;50.50
14101;DHT22;7127;49.372;8.166;2024-01-15T02:39:03;2.90;50.80
14101;DHT22;7127;49.372;8.166;2024-01-15T02:41:31;2.60;50.50
14101;DHT22;7127;49.372;8.166;2024-01-15T02:43:58;2.70;51.10
14101;DHT22;7127;49.372;8.166;2024-01-15T02:46:25;2.60;50.50
14101;DHT22;7127;49.372;8.166;2024-01-15T02:48:52;3.20;51.00
14101;DHT22;7127;49.372;8.166;2024-01-15T02:51:19;2.70;50.50
14101;DHT22;7127;49.372;8.166;2024-01-15T02:53:46;2.70;50.50
14101;DHT22;7127;49.372;8.166;2024-01-15T02:56:12;2.80;50.60
14101;DHT22;7127;49.372;8.166;2024-01-15T02:58:41;2.80;50.80
14101;DHT22;7127;49.372;8.166;2024-01-15T03:01:07;2.80;50.60
14101;DHT22;7127;49.372;8.166;2024-01-15T03:03:34;2.80;50.60
14101;DHT22;7127;49.372;8.166;2024-01-15T03:06:01;2.80;50.70
14101;DHT22;7127;49.372;8.166;2024-01-15T03:08:28;2.80;50.50
14101;DHT22;7127;49.372;8.166;2024-01-15T03:10:55;3.00;51.20
14101;DHT22;7127;49.372;8.166;2024-01-15T03:13:22;3.00;50.60
14101;DHT22;7127;49.372;8.166;2024-01-15T03:15:51;2.90;50.50
14101;DHT22;7127;49.372;8.166;2024-01-15T03:18:17;2.90;50.60
14101;DHT22;7127;49.372;8.166;2024-01-15T03:20:44;2.90;50.60
14101;DHT22;7127;49.372;8.166;2024-01-15T03:23:11;3.40;51.50
14101;DHT22;7127;49.372;8.166;2024-01-15T03:25:38;2.90;51.00
14101;DHT22;7127;49.372;8.166;2024-01-15T03:28:05;2.90;51.20
14101;DHT22;7127;49.372;8.166;2024-01-15T03:30:32;3.40;51.60
14101;DHT22;7127;49.372;8.166;2024-01-15T03:33:00;2.80;51.10
14101;DHT22;7127;49.372;8.166;2024-01-15T03:35:27;2.80;51.10
14101;DHT22;7127;49.372;8.166;2024-01-15T03:37:56;2.70;51.70
14101;DHT22;7127;49.372;8.166;2024-01-15T03:40:23;2.70;51.60
14101;DHT22;7127;49.372;8.166;2024-01-15T03:42:50;2.80;51.60
14101;DHT22;7127;49.372;8.166;2024-01-15T03:45:17;2.60;51.30
14101;DHT22;7127;49.372;8.166;2024-01-15T03:47:44;3.00;51.80
14101;DHT22;7127;49.372;8.166;2024-01-15T03:50:13;2.60;51.80
14101;DHT22;7127;49.372;8.166;2024-01-15T03:52:40;2.60;51.70
14101;DHT22;7127;49.372;8.166;2024-01-15T03:55:07;2.60;52.20
14101;DHT22;7127;49.372;8.166;2024-01-15T03:57:34;2.60;51.70
14101;DHT22;7127;49.372;8.166;2024-01-15T04:00:01;2.60;52.00
14101;DHT22;7127;49.372;8.166;2024-01-15T04:02:29;2.70;52.00
14101;DHT22;7127;49.372;8.166;2024-01-15T04:04:56;3.10;52.40
14101;DHT22;7127;49.372;8.166;2024-01-15T04:07:24;2.60;52.10
14101;DHT22;7127;49.372;8.166;2024-01-15T04:09:51;2.60;52.40
14101;DHT22;7127;49.372;8.166;2024-01-15T04:12:18;2.60;52.20
14101;DHT22;7127;49.372;8.166;2024-01-15T04:14:45;2.70;52.10
14101;DHT22;7127;49.372;8.166;2024-01-15T04:17:12;2.60;52.00
14101;DHT22;7127;49.372;8.166;2024-01-15T04:19:39;2.60;52.10
14101;DHT22;7127;49.372;8.166;2024-01-15T04:22:09;2.60;52.00
14101;DHT22;7127;49.372;8.166;2024-01-15T04:24:38;2.60;52.20
14101;DHT22;7127;49.372;8.166;2024-01-15T04:27:05;2.70;52.20
14101;DHT22;7127;49.372;8.166;2024-01-15T04:29:32;2.60;52.40
14101;DHT22;7127;49.372;8.166;2024-01-15T04:31:59;2.60;52.40
14101;DHT22;7127;49.372;8.166;2024-01-15T04:34:26;2.60;52.40
14101;DHT22;7127;49.372;8.166;2024-01-15T04:36:53;2.60;52.20
14101;DHT22;7127;49.372;8.166;2024-01-15T04:39:19;2.70;52.30
14101;DHT22;7127;49.372;8.166;2024-01-15T04:41:49;2.70;52.20
14101;DHT22;7127;49.372;8.166;2024-01-15T04:44:16;3.10;52.40
14101;DHT22;7127;49.372;8.166;2024-01-15T04:46:43;2.70;52.20
14101;DHT22;7127;49.372;8.166;2024-01-15T04:49:10;2.70;52.00
14101;DHT22;7127;49.372;8.166;2024-01-15T04:51:37;2.70;52.10
14101;DHT22;7127;49.372;8.166;2024-01-15T04:54:04;2.80;52.20
14101;DHT22;7127;49.372;8.166;2024-01-15T04:56:31;2.70;52.20
14101;DHT22;7127;49.372;8.166;2024-01-15T04:59:00;2.70;52.20
14101;DHT22;7127;49.372;8.166;2024-01-15T05:01:31;2.80;52.20
14101;DHT22;7127;49.372;8.166;2024-01-15T05:03:58;2.80;52.20
14101;DHT22;7127;49.372;8.166;2024-01-15T05:06:28;2.80;52.00
14101;DHT22;7127;49.372;8.166;2024-01-15T05:08:55;2.90;52.20
14101;DHT22;7127;49.372;8.166;2024-01-15T05:11:23;2.90;52.00
14101;DHT22;7127;49.372;8.166;2024-01-15T05:13:50;2.90;52.00
14101;DHT22;7127;49.372;8.166;2024-01-15T05:16:18;2.90;52.00
14101;DHT22;7127;49.372;8.166;2024-01-15T05:18:45;3.00;52.00
14101;DHT22;7127;49.372;8.166;2024-01-15T05:21:12;3.00;52.10
14101;DHT22;7127;49.372;8.166;2024-01-15T05:23:39;3.00;52.10
14101;DHT22;7127;49.372;8.166;2024-01-15T05:26:06;3.00;52.00
14101;DHT22;7127;49.372;8.166;2024-01-15T05:28:34;3.00;51.90
14101;DHT22;7127;49.372;8.166;2024-01-15T05:31:01;3.00;52.00
14101;DHT22;7127;49.372;8.166;2024-01-15T05:33:30;3.20;52.10
14101;DHT22;7127;49.372;8.166;2024-01-15T05:35:57;3.10;52.20
14101;DHT22;7127;49.372;8.166;2024-01-15T05:38:24;3.40;52.40
14101;DHT22;7127;49.372;8.166;2024-01-15T05:40:51;3.10;52.20
14101;DHT22;7127;49.372;8.166;2024-01-15T05:43:18;3.10;52.20
14101;DHT22;7127;49.372;8.166;2024-01-15T05:45:48;3.10;52.00
14101;DHT22;7127;49.372;8.166;2024-01-15T05:48:15;3.20;52.20
14101;DHT22;7127;49.372;8.166;2024-01-15T05:50:44;3.20;52.00
14101;DHT22;7127;49.372;8.166;2024-01-15T05:53:11;3.20;52.00
14101;DHT22;7127;49.372;8.166;2024-01-15T05:55:38;3.20;52.10
14101;DHT22;7127;49.372;8.166;2024-01-15T05:58:06;3.20;52.00
14101;DHT22;7127;49.372;8.166;2024-01-15T06:00:33;3.20;51.90
14101;DHT22;7127;49.372;8.166;2024-01-15T06:03:01;3.30;52.20
14101;DHT22;7127;49.372;8.166;2024-01-15T06:05:28;3.20;52.10
14101;DHT22;7127;49.372;8.166;2024-01-15T06:07:57;3.60;52.20
14101;DHT22;7127;49.372;8.166;2024-01-15T06:10:24;3.30;51.80
14101;DHT22;7127;49.372;8.166;2024-01-15T06:12:51;3.40;52.20
14101;DHT22;7127;49.372;8.166;2024-01-15T06:15:18;3.30;52.00
14101;DHT22;7127;49.372;8.166;2024-01-15T06:17:48;3.30;52.20
14101;DHT22;7127;49.372;8.166;2024-01-15T06:20:28;3.30;52.20
14101;DHT22;7127;49.372;8.166;2024-01-15T06:23:30;3.30;52.20
14101;DHT22;7127;49.372;8.166;2024-01-15T06:25:57;3.30;52.20
14101;DHT22;7127;49.372;8.166;2024-01-15T06:28:24;3.40;52.30
14101;DHT22;7127;49.372;8.166;2024-01-15T06:30:51;3.40;52.30
14101;DHT22;7127;49.372;8.166;2024-01-15T06:33:18;3.40;52.30
14101;DHT22;7127;49.372;8.166;2024-01-15T06:35:45;3.40;52.40
14101;DHT22;7127;49.372;8.166;2024-01-15T06:38:12;3.40;52.40
14101;DHT22;7127;49.372;8.166;2024-01-15T06:40:40;3.50;52.40
14101;DHT22;7127;49.372;8.166;2024-01-15T06:43:11;3.50;52.90
14101;DHT22;7127;49.372;8.166;2024-01-15T06:45:37;3.40;52.40
14101;DHT22;7127;49.372;8.166;2024-01-15T06:48:05;3.40;52.30
14101;DHT22;7127;49.372;8.166;2024-01-15T06:50:35;3.40;52.30
14101;DHT22;7127;49.372;8.166;2024-01-15T06:53:03;3.70;52.60
14101;DHT22;7127;49.372;8.166;2024-01-15T06:55:30;3.50;52.40
14101;DHT22;7127;49.372;8.166;2024-01-15T06:58:03;3.50;52.60
14101;DHT22;7127;49.372;8.166;2024-01-15T07:00:30;3.50;52.50
14101;DHT22;7127;49.372;8.166;2024-01-15T07:02:57;3.60;52.60
14101;DHT22;7127;49.372;8.166;2024-01-15T07:05:24;3.60;52.50
14101;DHT22;7127;49.372;8.166;2024-01-15T07:07:50;3.60;52.70
14101;DHT22;7127;49.372;8.166;2024-01-15T07:10:17;3.70;52.60
14101;DHT22;7127;49.372;8.166;2024-01-15T07:12:44;3.70;52.60
14101;DHT22;7127;49.372;8.166;2024-01-15T07:15:12;3.70;52.70
14101;DHT22;7127;49.372;8.166;2024-01-15T07:17:39;3.70;52.70
14101;DHT22;7127;49.372;8.166;2024-01-15T07:20:07;3.80;52.80
14101;DHT22;7127;49.372;8.166;2024-01-15T07:22:38;3.80;52.80
14101;DHT22;7127;49.372;8.166;2024-01-15T07:25:11;3.80;52.90
14101;DHT22;7127;49.372;8.166;2024-01-15T07:27:38;3.80;52.60
14101;DHT22;7127;49.372;8.166;2024-01-15T07:30:06;3.90;52.80
14101;DHT22;7127;49.372;8.166;2024-01-15T07:32:34;3.90;53.00
14101;DHT22;7127;49.372;8.166;2024-01-15T07:35:01;3.90;53.00
14101;DHT22;7127;49.372;8.166;2024-01-15T07:37:28;3.90;52.70
14101;DHT22;7127;49.372;8.166;2024-01-15T07:39:54;3.90;52.90
14101;DHT22;7127;49.372;8.166;2024-01-15T07:42:21;3.90;52.90
14101;DHT22;7127;49.372;8.166;2024-01-15T07:44:48;4.00;53.00
14101;DHT22;7127;49.372;8.166;2024-01-15T07:47:17;3.90;53.30
14101;DHT22;7127;49.372;8.166;2024-01-15T07:49:45;4.00;53.10
14101;DHT22;7127;49.372;8.166;2024-01-15T07:52:12;4.10;53.30
14101;DHT22;7127;49.372;8.166;2024-01-15T07:54:39;4.00;53.40
14101;DHT22;7127;49.372;8.166;2024-01-15T07:57:06;4.00;53.40
14101;DHT22;7127;49.372;8.166;2024-01-15T07:59:34;4.00;53.50
14101;DHT22;7127;49.372;8.166;2024-01-15T08:02:01;4.10;53.20
14101;DHT22;7127;49.372;8.166;2024-01-15T08:04:28;4.10;53.50
14101;DHT22;7127;49.372;8.166;2024-01-15T08:06:57;4.10;53.20
14101;DHT22;7127;49.372;8.166;2024-01-15T08:09:24;4.20;53.30
14101;DHT22;7127;49.372;8.166;2024-01-15T08:11:51;4.20;53.10
14101;DHT22;7127;49.372;8.166;2024-01-15T08:14:18;4.20;53.20
14101;DHT22;7127;49.372;8.166;2024-01-15T08:16:44;4.30;53.20
14101;DHT22;7127;49.372;8.166;2024-01-15T08:19:11;4.30;53.40
14101;DHT22;7127;49.372;8.166;2024-01-15T08:21:39;4.30;53.40
14101;DHT22;7127;49.372;8.166;2024-01-15T08:24:08;4.40;53.20
14101;DHT22;7127;49.372;8.166;2024-01-15T08:26:36;4.40;53.30
14101;DHT22;7127;49.372;8.166;2024-01-15T08:29:19;4.40;53.30
14101;DHT22;7127;49.372;8.166;2024-01-15T08:31:46;4.50;53.40
14101;DHT22;7127;49.372;8.166;2024-01-15T08:34:13;4.50;53.30
14101;DHT22;7127;49.372;8.166;2024-01-15T08:36:40;4.50;53.20
14101;DHT22;7127;49.372;8.166;2024-01-15T08:39:08;4.70;53.40
14101;DHT22;7127;49.372;8.166;2024-01-15T08:41:36;4.60;53.20
14101;DHT22;7127;49.372;8.166;2024-01-15T08:44:03;4.60;53.00
14101;DHT22;7127;49.372;8.166;2024-01-15T08:46:29;4.70;53.00
14101;DHT22;7127;49.372;8.166;2024-01-15T08:48:56;4.70;53.10
14101;DHT22;7127;49.372;8.166;2024-01-15T08:51:23;4.80;53.20
14101;DHT22;7127;49.372;8.166;2024-01-15T08:53:50;4.70;53.10
14101;DHT22;7127;49.372;8.166;2024-01-15T08:56:18;4.80;53.00
14101;DHT22;7127;49.372;8.166;2024-01-15T08:58:45;4.80;53.20
14101;DHT22;7127;49.372;8.166;2024-01-15T09:01:12;4.80;52.90
14101;DHT22;7127;49.372;8.166;2024-01-15T09:03:39;4.80;52.90
14101;DHT22;7127;49.372;8.166;2024-01-15T09:06:07;4.90;53.00
14101;DHT22;7127;49.372;8.166;2024-01-15T09:08:35;4.90;53.10
14101;DHT22;7127;49.372;8.166;2024-01-15T09:11:02;4.90;53.20
14101;DHT22;7127;49.372;8.166;2024-01-15T09:13:30;4.90;53.20
14101;DHT22;7127;49.372;8.166;2024-01-15T09:15:58;4.90;53.40
14101;DHT22;7127;49.372;8.166;2024-01-15T09:18:25;5.00;53.40
14101;DHT22;7127;49.372;8.166;2024-01-15T09:20:52;5.00;53.30
14101;DHT22;7127;49.372;8.166;2024-01-15T09:23:19;5.00;53.30
14101;DHT22;7127;49.372;8.166;2024-01-15T09:25:45;5.00;53.10
14101;DHT22;7127;49.372;8.166;2024-01-15T09:28:21;5.00;53.40
14101;DHT22;7127;49.372;8.166;2024-01-15T09:30:49;5.00;53.30
14101;DHT22;7127;49.372;8.166;2024-01-15T09:33:16;5.00;53.50
14101;DHT22;7127;49.372;8.166;2024-01-15T09:35:43;5.00;53.60
14101;DHT22;7127;49.372;8.166;2024-01-15T09:38:10;5.00;53.50
14101;DHT22;7127;49.372;8.166;2024-01-15T09:40:38;5.00;53.40
14101;DHT22;7127;49.372;8.166;2024-01-15T09:43:06;5.00;53.60
14101;DHT22;7127;49.372;8.166;2024-01-15T09:45:33;5.00;53.60
14101;DHT22;7127;49.372;8.166;2024-01-15T09:48:02;5.10;53.60
14101;DHT22;7127;49.372;8.166;2024-01-15T09:50:29;5.10;53.70
14101;DHT22;7127;49.372;8.166;2024-01-15T09:52:56;5.10;54.00
14101;DHT22;7127;49.372;8.166;2024-01-15T09:55:23;5.10;53.60
14101;DHT22;7127;49.372;8.166;2024-01-15T09:57:51;5.10;53.60
14101;DHT22;7127;49.372;8.166;2024-01-15T10:00:18;5.10;53.40
14101;DHT22;7127;49.372;8.166;2024-01-15T10:02:45;5.10;53.70
14101;DHT22;7127;49.372;8.166;2024-01-15T10:05:13;5.10;53.80
14101;DHT22;7127;49.372;8.166;2024-01-15T10:07:41;5.10;53.40
14101;DHT22;7127;49.372;8.166;2024-01-15T10:10:10;5.00;53.60
14101;DHT22;7127;49.372;8.166;2024-01-15T10:12:38;5.10;53.70
14101;DHT22;7127;49.372;8.166;2024-01-15T10:15:06;5.10;53.60
14101;DHT22;7127;49.372;8.166;2024-01-15T10:17:36;5.10;53.50
14101;DHT22;7127;49.372;8.166;2024-01-15T10:20:08;5.20;53.90
14101;DHT22;7127;49.372;8.166;2024-01-15T10:22:40;5.20;53.80
14101;DHT22;7127;49.372;8.166;2024-01-15T10:25:10;5.20;53.70
14101;DHT22;7127;49.372;8.166;2024-01-15T10:27:37;5.10;53.60
14101;DHT22;7127;49.372;8.166;2024-01-15T10:30:04;5.20;53.70
14101;DHT22;7127;49.372;8.166;2024-01-15T10:32:31;5.20;53.60
14101;DHT22;7127;49.372;8.166;2024-01-15T10:34:58;5.30;53.60
14101;DHT22;7127;49.372;8.166;2024-01-15T10:37:25;5.30;53.80
14101;DHT22;7127;49.372;8.166;2024-01-15T10:39:54;5.30;53.50
14101;DHT22;7127;49.372;8.166;2024-01-15T10:42:20;5.30;53.60
14101;DHT22;7127;49.372;8.166;2024-01-15T10:44:47;5.30;53.90
14101;DHT22;7127;49.372;8.166;2024-01-15T10:47:14;5.30;53.90
14101;DHT22;7127;49.372;8.166;2024-01-15T10:49:42;5.40;53.70
14101;DHT22;7127;49.372;8.166;2024-01-15T10:52:08;5.40;53.90
14101;DHT22;7127;49.372;8.166;2024-01-15T10:54:37;5.30;53.70
14101;DHT22;7127;49.372;8.166;2024-01-15T10:57:06;5.40;53.90
14101;DHT22;7127;49.372;8.166;2024-01-15T10:59:33;5.40;53.90
14101;DHT22;7127;49.372;8.166;2024-01-15T11:02:01;5.40;53.90
14101;DHT22;7127;49.372;8.166;2024-01-15T11:04:28;5.40;53.90
14101;DHT22;7127;49.372;8.166;2024-01-15T11:06:56;5.40;54.10
14101;DHT22;7127;49.372;8.166;2024-01-15T11:09:23;5.40;54.20
14101;DHT22;7127;49.372;8.166;2024-01-15T11:11:53;5.40;54.00
14101;DHT22;7127;49.372;8.166;2024-01-15T11:14:38;5.50;54.20
14101;DHT22;7127;49.372;8.166;2024-01-15T11:17:06;5.40;54.10
14101;DHT22;7127;49.372;8.166;2024-01-15T11:19:37;5.50;54.10
14101;DHT22;7127;49.372;8.166;2024-01-15T11:22:06;5.50;54.20
14101;DHT22;7127;49.372;8.166;2024-01-15T11:24:34;5.50;54.20
14101;DHT22;7127;49.372;8.166;2024-01-15T11:27:01;5.50;54.10
14101;DHT22;7127;49.372;8.166;2024-01-15T11:29:33;5.50;54.10
14101;DHT22;7127;49.372;8.166;2024-01-15T11:32:03;5.60;54.00
14101;DHT22;7127;49.372;8.166;2024-01-15T11:34:53;5.60;53.90
14101;DHT22;7127;49.372;8.166;2024-01-15T11:37:23;5.60;54.00
14101;DHT22;7127;49.372;8.166;2024-01-15T11:39:51;5.60;53.80
14101;DHT22;7127;49.372;8.166;2024-01-15T11:42:20;5.70;53.70
14101;DHT22;7127;49.372;8.166;2024-01-15T11:44:48;5.70;53.60
14101;DHT22;7127;49.372;8.166;2024-01-15T11:50:08;5.80;53.80
14101;DHT22;7127;49.372;8.166;2024-01-15T11:52:38;5.80;53.80
14101;DHT22;7127;49.372;8.166;2024-01-15T11:55:12;5.80;53.70
14101;DHT22;7127;49.372;8.166;2024-01-15T11:57:46;5.80;53.70
14101;DHT22;7127;49.372;8.166;2024-01-15T12:00:13;5.80;53.80
14101;DHT22;7127;49.372;8.166;2024-01-15T12:02:43;5.80;53.60
14101;DHT22;7127;49.372;8.166;2024-01-15T12:05:10;5.80;53.60
14101;DHT22;7127;49.372;8.166;2024-01-15T12:07:38;5.80;53.60
14101;DHT22;7127;49.372;8.166;2024-01-15T12:10:08;5.80;53.60
14101;DHT22;7127;49.372;8.166;2024-01-15T12:12:45;5.80;53.60
14101;DHT22;7127;49.372;8.166;2024-01-15T12:15:14;5.90;53.70
14101;DHT22;7127;49.372;8.166;2024-01-15T12:17:42;5.90;53.80
14101;DHT22;7127;49.372;8.166;2024-01-15T12:20:10;6.00;53.70
14101;DHT22;7127;49.372;8.166;2024-01-15T12:22:37;6.00;53.60
14101;DHT22;7127;49.372;8.166;2024-01-15T12:25:04;6.00;53.60
14101;DHT22;7127;49.372;8.166;2024-01-15T12:27:31;6.00;53.60
14101;DHT22;7127;49.372;8.166;2024-01-15T12:29:58;6.10;53.60
14101;DHT22;7127;49.372;8.166;2024-01-15T12:32:25;6.10;53.50
14101;DHT22;7127;49.372;8.166;2024-01-15T12:34:53;6.10;53.50
14101;DHT22;7127;49.372;8.166;2024-01-15T12:37:20;6.10;53.30
14101;DHT22;7127;49.372;8.166;2024-01-15T12:39:47;6.10;53.20
14101;DHT22;7127;49.372;8.166;2024-01-15T12:42:14;6.10;53.20
14101;DHT22;7127;49.372;8.166;2024-01-15T12:44:42;6.10;53.10
14101;DHT22;7127;49.372;8.166;2024-01-15T12:47:09;6.10;53.10
14101;DHT22;7127;49.372;8.166;2024-01-15T12:49:36;6.20;53.10
14101;DHT22;7127;49.372;8.166;2024-01-15T12:52:08;6.20;53.20
14101;DHT22;7127;49.372;8.166;2024-01-15T12:54:35;6.20;53.30
14101;DHT22;7127;49.372;8.166;2024-01-15T12:57:02;6.20;53.30
14101;DHT22;7127;49.372;8.166;2024-01-15T12:59:29;6.20;53.20
14101;DHT22;7127;49.372;8.166;2024-01-15T13:01:55;6.20;53.10
14101;DHT22;7127;49.372;8.166;2024-01-15T13:04:23;6.20;53.20
14101;DHT22;7127;49.372;8.166;2024-01-15T13:06:50;6.20;53.10
14101;DHT22;7127;49.372;8.166;2024-01-15T13:09:19;6.30;52.90
14101;DHT22;7127;49.372;8.166;2024-01-15T13:11:45;6.30;52.70
14101;DHT22;7127;49.372;8.166;2024-01-15T13:14:13;6.30;52.70
14101;DHT22;7127;49.372;8.166;2024-01-15T13:16:40;6.30;52.70
14101;DHT22;7127;49.372;8.166;2024-01-15T13:19:07;6.30;52.50
14101;DHT22;7127;49.372;8.166;2024-01-15T13:21:36;6.30;52.30
14101;DHT22;7127;49.372;8.166;2024-01-15T13:24:03;6.30;52.50
14101;DHT22;7127;49.372;8.166;2024-01-15T13:26:32;6.30;52.50
14101;DHT22;7127;49.372;8.166;2024-01-15T13:28:59;6.30;52.60
14101;DHT22;7127;49.372;8.166;2024-01-15T13:31:26;6.30;52.40
14101;DHT22;7127;49.372;8.166;2024-01-15T13:33:53;6.30;52.50
14101;DHT22;7127;49.372;8.166;2024-01-15T13:36:20;6.30;52.50
14101;DHT22;7127;49.372;8.166;2024-01-15T13:38:48;6.30;52.20
14101;DHT22;7127;49.372;8.166;2024-01-15T13:41:15;6.30;52.30
14101;DHT22;7127;49.372;8.166;2024-01-15T13:43:45;6.30;52.30
14101;DHT22;7127;49.372;8.166;2024-01-15T13:46:12;6.30;52.30
14101;DHT22;7127;49.372;8.166;2024-01-15T13:48:39;6.30;52.30
14101;DHT22;7127;49.372;8.166;2024-01-15T13:51:05;6.30;52.30
14101;DHT22;7127;49.372;8.166;2024-01-15T13:53:32;6.30;52.10
14101;DHT22;7127;49.372;8.166;2024-01-15T13:55:59;6.30;52.10
14101;DHT22;7127;49.372;8.166;2024-01-15T13:58:26;6.30;52.10
14101;DHT22;7127;49.372;8.166;2024-01-15T14:00:54;6.40;52.30
14101;DHT22;7127;49.372;8.166;2024-01-15T14:03:21;6.40;52.30
14101;DHT22;7127;49.372;8.166;2024-01-15T14:05:47;6.40;52.20
14101;DHT22;7127;49.372;8.166;2024-01-15T14:08:14;6.40;52.30
14101;DHT22;7127;49.372;8.166;2024-01-15T14:10:41;6.40;52.20
14101;DHT22;7127;49.372;8.166;2024-01-15T14:13:08;6.40;52.20
14101;DHT22;7127;49.372;8.166;2024-01-15T14:15:35;6.40;52.10
14101;DHT22;7127;49.372;8.166;2024-01-15T14:18:04;6.40;52.30
14101;DHT22;7127;49.372;8.166;2024-01-15T14:20:31;6.50;52.30
14101;DHT22;7127;49.372;8.166;2024-01-15T14:22:58;6.50;52.20
14101;DHT22;7127;49.372;8.166;2024-01-15T14:25:25;6.50;52.20
14101;DHT22;7127;49.372;8.166;2024-01-15T14:27:52;6.60;52.20
14101;DHT22;7127;49.372;8.166;2024-01-15T14:30:18;6.60;52.10
14101;DHT22;7127;49.372;8.166;2024-01-15T14:32:45;6.60;52.60
14101;DHT22;7127;49.372;8.166;2024-01-15T14:35:13;6.70;51.90
14101;DHT22;7127;49.372;8.166;2024-01-15T14:37:40;6.70;51.90
14101;DHT22;7127;49.372;8.166;2024-01-15T14:40:07;6.70;51.80
14101;DHT22;7127;49.372;8.166;2024-01-15T14:42:35;6.70;51.50
14101;DHT22;7127;49.372;8.166;2024-01-15T14:45:03;6.70;51.20
14101;DHT22;7127;49.372;8.166;2024-01-15T14:47:34;6.60;51.10
14101;DHT22;7127;49.372;8.166;2024-01-15T14:50:01;6.60;51.20
14101;DHT22;7127;49.372;8.166;2024-01-15T14:52:29;6.60;51.10
14101;DHT22;7127;49.372;8.166;2024-01-15T14:54:56;6.50;51.00
14101;DHT22;7127;49.372;8.166;2024-01-15T14:57:22;6.50;51.00
14101;DHT22;7127;49.372;8.166;2024-01-15T14:59:49;6.40;51.00
14101;DHT22;7127;49.372;8.166;2024-01-15T15:02:16;6.40;50.90
14101;DHT22;7127;49.372;8.166;2024-01-15T15:04:43;6.30;50.90
14101;DHT22;7127;49.372;8.166;2024-01-15T15:07:10;6.30;50.90
14101;DHT22;7127;49.372;8.166;2024-01-15T15:09:38;6.20;50.80
14101;DHT22;7127;49.372;8.166;2024-01-15T15:12:05;6.20;50.80
14101;DHT22;7127;49.372;8.166;2024-01-15T15:14:32;6.10;50.80
14101;DHT22;7127;49.372;8.166;2024-01-15T15:17:03;6.10;51.00
14101;DHT22;7127;49.372;8.166;2024-01-15T15:19:30;6.00;50.90
14101;DHT22;7127;49.372;8.166;2024-01-15T15:21:57;6.00;50.90
14101;DHT22;7127;49.372;8.166;2024-01-15T15:24:24;6.00;50.90
14101;DHT22;7127;49.372;8.166;2024-01-15T15:26:52;6.00;51.00
14101;DHT22;7127;49.372;8.166;2024-01-15T15:29:19;5.90;51.00
14101;DHT22;7127;49.372;8.166;2024-01-15T15:31:45;5.80;50.90
14101;DHT22;7127;49.372;8.166;2024-01-15T15:34:14;5.80;50.80
14101;DHT22;7127;49.372;8.166;2024-01-15T15:36:41;5.70;50.90
14101;DHT22;7127;49.372;8.166;2024-01-15T15:39:07;5.70;51.00
14101;DHT22;7127;49.372;8.166;2024-01-15T15:41:35;5.70;51.10
14101;DHT22;7127;49.372;8.166;2024-01-15T15:44:03;5.60;51.00
14101;DHT22;7127;49.372;8.166;2024-01-15T15:46:30;5.60;51.10
14101;DHT22;7127;49.372;8.166;2024-01-15T15:48:57;5.60;51.10
14101;DHT22;7127;49.372;8.166;2024-01-15T15:51:23;5.50;51.10
14101;DHT22;7127;49.372;8.166;2024-01-15T15:53:50;5.50;51.10
14101;DHT22;7127;49.372;8.166;2024-01-15T15:56:18;5.50;51.20
14101;DHT22;7127;49.372;8.166;2024-01-15T15:58:44;5.40;51.20
14101;DHT22;7127;49.372;8.166;2024-01-15T16:01:12;5.30;51.20
14101;DHT22;7127;49.372;8.166;2024-01-15T16:03:39;5.30;51.30
14101;DHT22;7127;49.372;8.166;2024-01-15T16:06:06;5.30;51.40
14101;DHT22;7127;49.372;8.166;2024-01-15T16:08:32;5.30;51.40